Flight UPS650

  • Submitted By: Thomas Lienert
  • Departure Airport: Newark International Airport (KEWR)
  • Arrival Airport: Louisville International Airport-Standiford Field KSDF - World Port (100-199) (KSDF)
  • Aircraft: B747-8F (N605UP)
  • Flight Time: 01.54.37
  • Date Submitted: 02/08/2018
  • Route: KEWR LRP J6 HVQ J78 DACOS KSDF
  • Status: Accepted
Flight Details
Gross Revenue:
(235803 load / $ 11.15 per unit
$ 2, 629, 203.45
Fuel Cost:
(30419.3 fuel used @ 7.24 / unit)
$ 220, 235.73

Additional Log Information:

View Log

[21:48] NOTE: Boarding has started
[21:48] ----- Flight Opened -----
[21:48] UPSVAC kACARSII - 1.1.0.1
[21:48] FS: FSX
[21:48] FSUIPC: v4,939
[21:48] Flight Number: UPS650
[21:48] FS Aircraft: UPS Boeing 747-8F
[21:48] FS Model: B747
[21:48] FS Type: BOEING AIRCRAFT
[21:48] Departure: KEWR
[21:48] Arrival: KSDF
[21:48] Flight Level: 30000
[21:48] Flight Type: C
[21:48] Cargo: 235803
[21:48] FOB: 105182 lbs
[21:48] Crash Detection Aircraft: Disabled
[21:48] FS: Paused
[21:48] Parking Brake: Engaged
[21:48] FS: Unpaused
[22:05] NOTE: Pushing back
[22:05] Parking Brake: Released
[22:06] Parking Brake: Engaged
[22:06] Engine 2: Started
[22:06] Engine 1: Started
[22:06] Engine 3: Started
[22:06] Engine 4: Started
[22:08] Parking Brake: Released
[22:08] NOTE: Taxi started
[22:08] Flaps: Position 6
[22:12] Parking Brake: Engaged
[22:13] Parking Brake: Released
[22:15] Autopilot: Engaged
[22:15] Altitude Data: 16 ft AGL | 32 ft AMSL
[22:15] NOTE: ----- TAKE OFF -----
[22:15] Speed Data: 190 knots GS | 193 knots TAS | 201 knots IAS | 0 fpm VS
[22:15] NOTE: ----- TAKE OFF -----
[22:15] NOTE: ----- TAKE OFF -----
[22:15] NOTE: ----- TAKE OFF -----
[22:15] NOTE: ----- TAKE OFF -----
[22:15] Speed Data: 190 knots GS | 193 knots TAS | 201 knots IAS | 0 fpm VS
[22:15] Speed Data: 190 knots GS | 193 knots TAS | 201 knots IAS | 0 fpm VS
[22:15] Speed Data: 190 knots GS | 193 knots TAS | 201 knots IAS | 0 fpm VS
[22:15] Speed Data: 190 knots GS | 193 knots TAS | 201 knots IAS | 0 fpm VS
[22:15] FOB: 98402 lbs
[22:15] FOB: 98402 lbs
[22:15] FOB: 98402 lbs
[22:15] FOB: 98402 lbs
[22:15] NOTE: ----- TAKE OFF -----
[22:15] FOB: 98402 lbs
[22:15] Heading: 35° | Pitch: 1° | Bank: -1°
[22:15] Heading: 35° | Pitch: 1° | Bank: -1°
[22:15] Heading: 35° | Pitch: 1° | Bank: -1°
[22:15] Heading: 35° | Pitch: 1° | Bank: -1°
[22:15] METAR: KEWR 082051Z 27007KT 10SM SCT050 01/M12 A3032 RMK AO2 SLP265 T00111117 55012
[22:15] METAR: KEWR 082051Z 27007KT 10SM SCT050 01/M12 A3032 RMK AO2 SLP265 T00111117 55012
[22:15] METAR: KEWR 082051Z 27007KT 10SM SCT050 01/M12 A3032 RMK AO2 SLP265 T00111117 55012
[22:15] Speed Data: 190 knots GS | 193 knots TAS | 201 knots IAS | 0 fpm VS
[22:15] FOB: 98402 lbs
[22:15] Heading: 35° | Pitch: 1° | Bank: -1°
[22:15] METAR: KEWR 082051Z 27007KT 10SM SCT050 01/M12 A3032 RMK AO2 SLP265 T00111117 55012
[22:15] METAR: KEWR 082051Z 27007KT 10SM SCT050 01/M12 A3032 RMK AO2 SLP265 T00111117 55012
[22:15] Heading: 35° | Pitch: 1° | Bank: -1°
[22:15] METAR: KEWR 082051Z 27007KT 10SM SCT050 01/M12 A3032 RMK AO2 SLP265 T00111117 55012
[22:15] NOTE: Climb started
[22:15] Landing Gear: Retracted
[22:15] Speed Data: 194 knots GS | 199 knots TAS | 207 knots IAS | 2609 fpm VS
[22:15] Altitude Data: 328 ft AGL | 344 ft AMSL
[22:15] Flaps: Position 5
[22:15] Speed Data: 204 knots GS | 208 knots TAS | 216 knots IAS | 2742 fpm VS
[22:16] Flaps: Position 4
[22:16] Speed Data: 209 knots GS | 214 knots TAS | 222 knots IAS | 2620 fpm VS
[22:16] Flaps: Position 3
[22:16] Speed Data: 227 knots GS | 241 knots TAS | 248 knots IAS | 2534 fpm VS
[22:17] Flaps: Position 2
[22:17] Speed Data: 252 knots GS | 226 knots TAS | 227 knots IAS | 2096 fpm VS
[22:17] Flaps: Position 0
[22:17] Speed Data: 289 knots GS | 309 knots TAS | 305 knots IAS | 2551 fpm VS
[22:28] NOTE: TOC reached
[22:28] NOTE: Cruise started
[22:28] Speed Data: 373 knots GS | 487 knots TAS | 327 knots IAS | 179 fpm VS
[22:28] FOB: 87115 lbs
[22:28] Heading: 265° | Pitch: 3° | Bank: 0°
[22:31] Overspeed: Encountered
[22:31] Speed Data: 412 knots GS | 521 knots TAS | 355 knots IAS | 33 fpm VS
[22:34] Overspeed: Corrected
[22:34] Speed Data: 400 knots GS | 521 knots TAS | 354 knots IAS | 1 fpm VS
[22:34] Overspeed: Encountered
[22:34] Speed Data: 400 knots GS | 522 knots TAS | 356 knots IAS | 13 fpm VS
[22:34] Overspeed: Corrected
[22:34] Speed Data: 398 knots GS | 521 knots TAS | 354 knots IAS | -3 fpm VS
[23:31] NOTE: TOD reached
[23:31] NOTE: Descent started
[23:31] Speed Data: 357 knots GS | 442 knots TAS | 300 knots IAS | -2940 fpm VS
[23:31] FOB: 52305 lbs
[23:31] Heading: 279° | Pitch: 0° | Bank: 0°
[23:40] Flaps: Position 1
[23:40] Speed Data: 303 knots GS | 346 knots TAS | 313 knots IAS | 32 fpm VS
[23:44] Flaps: Position 2
[23:44] Speed Data: 285 knots GS | 329 knots TAS | 296 knots IAS | 53 fpm VS
[23:48] NOTE: On approach
[23:49] Flaps: Position 3
[23:49] Speed Data: 204 knots GS | 220 knots TAS | 222 knots IAS | -1173 fpm VS
[23:49] Flaps: Position 4
[23:49] Speed Data: 194 knots GS | 210 knots TAS | 212 knots IAS | 43 fpm VS
[23:49] Flaps: Position 5
[23:49] Speed Data: 192 knots GS | 208 knots TAS | 209 knots IAS | -65 fpm VS
[23:49] Flaps: Position 6
[23:49] Speed Data: 186 knots GS | 206 knots TAS | 207 knots IAS | -175 fpm VS
[23:59] Landing Gear: Extended
[23:59] Speed Data: 194 knots GS | 196 knots TAS | 198 knots IAS | -1129 fpm VS
[23:59] Altitude Data: 1361 ft AGL | 1820 ft AMSL
[00:00] NOTE: ----- LANDED -----
[00:00] Landing Rate: -134,57 fpm
[00:00] Speed Data: 157 knots GS | 158 knots TAS | 163 knots IAS | 26 fpm VS
[00:00] FOB: 38180 lbs
[00:00] Heading: 172° | Pitch: 2° | Bank: 0°
[00:00] METAR: KSDF 082156Z 20004KT 10SM FEW030 BKN250 02/M05 A3046 RMK AO2 SLP321 T00221050
[00:01] NOTE: Taxi started
[00:01] Autopilot: Disengaged
[00:01] Altitude Data: 17 ft AGL | 515 ft AMSL
[00:01] Flaps: Position 0
[00:08] NOTE: Arrived
[00:08] Parking Brake: Engaged
[00:09] Engine 1: Stopped
[00:09] Engine 2: Stopped
[00:09] Engine 3: Stopped
[00:09] Engine 4: Stopped
[00:12] NOTE: Flight Completed
[00:12] FS Aircraft: UPS Boeing 747-8F
[00:12] FS Model: B747
[00:12] FS Type: BOEING AIRCRAFT
[00:12] FOB: 35123 lbs
[00:12] Fuel Used: 67063 lbs
[00:12] Flight Time: 01:54:37
[00:12] Flight Time (Dawn): 00:00:00
[00:12] Flight Time (Day): 01:33:29
[00:12] Flight Time (Dusk): 00:21:08
[00:12] Flight Time (Night): 00:00:00
[00:12] Total Landings: 1
[00:12] MaxSim Rate: 0x
[00:12] UPSVAC kACARSII - 1.1.0.1
[00:12] ----- Flight Closed -----

Route Map